sensor_id;sensor_type;location;lat;lon;timestamp;P1;durP1;ratioP1;P2;durP2;ratioP2
17199;SDS011;8716;52.268;20.968;2022-09-09T00:00:59;3.93;;;3.73;;
17199;SDS011;8716;52.268;20.968;2022-09-09T00:03:39;5.97;;;5.57;;
17199;SDS011;8716;52.268;20.968;2022-09-09T00:06:14;5.60;;;5.30;;
17199;SDS011;8716;52.268;20.968;2022-09-09T00:08:53;3.93;;;3.73;;
17199;SDS011;8716;52.268;20.968;2022-09-09T00:11:34;5.67;;;5.37;;
17199;SDS011;8716;52.268;20.968;2022-09-09T00:14:09;5.80;;;5.50;;
17199;SDS011;8716;52.268;20.968;2022-09-09T00:16:46;6.53;;;5.63;;
17199;SDS011;8716;52.268;20.968;2022-09-09T00:19:20;6.83;;;6.00;;
17199;SDS011;8716;52.268;20.968;2022-09-09T00:21:54;6.87;;;6.47;;
17199;SDS011;8716;52.268;20.968;2022-09-09T00:24:37;5.17;;;4.87;;
17199;SDS011;8716;52.268;20.968;2022-09-09T00:27:12;4.17;;;3.90;;
17199;SDS011;8716;52.268;20.968;2022-09-09T00:29:47;4.63;;;3.63;;
17199;SDS011;8716;52.268;20.968;2022-09-09T00:32:20;4.63;;;3.60;;
17199;SDS011;8716;52.268;20.968;2022-09-09T00:34:50;7.77;;;7.17;;
17199;SDS011;8716;52.268;20.968;2022-09-09T00:37:22;5.03;;;4.73;;
17199;SDS011;8716;52.268;20.968;2022-09-09T00:39:55;5.23;;;4.93;;
17199;SDS011;8716;52.268;20.968;2022-09-09T00:42:30;6.63;;;6.23;;
17199;SDS011;8716;52.268;20.968;2022-09-09T00:45:09;9.60;;;4.80;;
17199;SDS011;8716;52.268;20.968;2022-09-09T00:47:53;4.03;;;3.83;;
17199;SDS011;8716;52.268;20.968;2022-09-09T00:50:29;5.40;;;5.17;;
17199;SDS011;8716;52.268;20.968;2022-09-09T00:53:11;4.73;;;4.30;;
17199;SDS011;8716;52.268;20.968;2022-09-09T00:55:52;6.17;;;5.57;;
17199;SDS011;8716;52.268;20.968;2022-09-09T00:58:30;5.80;;;4.50;;
17199;SDS011;8716;52.268;20.968;2022-09-09T01:01:01;5.70;;;5.40;;
17199;SDS011;8716;52.268;20.968;2022-09-09T01:03:34;5.70;;;5.40;;
17199;SDS011;8716;52.268;20.968;2022-09-09T01:06:11;5.70;;;5.07;;
17199;SDS011;8716;52.268;20.968;2022-09-09T01:08:50;7.33;;;6.93;;
17199;SDS011;8716;52.268;20.968;2022-09-09T01:11:43;9.77;;;4.80;;
17199;SDS011;8716;52.268;20.968;2022-09-09T01:14:24;7.10;;;6.70;;
17199;SDS011;8716;52.268;20.968;2022-09-09T01:17:10;4.97;;;4.67;;
17199;SDS011;8716;52.268;20.968;2022-09-09T01:19:53;9.10;;;4.60;;
17199;SDS011;8716;52.268;20.968;2022-09-09T01:22:36;6.23;;;5.90;;
17199;SDS011;8716;52.268;20.968;2022-09-09T01:25:19;6.10;;;5.80;;
17199;SDS011;8716;52.268;20.968;2022-09-09T01:28:08;7.00;;;4.70;;
17199;SDS011;8716;52.268;20.968;2022-09-09T01:30:39;5.23;;;4.93;;
17199;SDS011;8716;52.268;20.968;2022-09-09T01:33:13;4.40;;;4.10;;
17199;SDS011;8716;52.268;20.968;2022-09-09T01:35:45;7.30;;;6.07;;
17199;SDS011;8716;52.268;20.968;2022-09-09T01:38:22;7.27;;;6.87;;
17199;SDS011;8716;52.268;20.968;2022-09-09T01:40:52;6.37;;;6.00;;
17199;SDS011;8716;52.268;20.968;2022-09-09T01:43:28;5.20;;;4.90;;
17199;SDS011;8716;52.268;20.968;2022-09-09T01:45:58;4.43;;;4.07;;
17199;SDS011;8716;52.268;20.968;2022-09-09T01:48:29;8.33;;;5.43;;
17199;SDS011;8716;52.268;20.968;2022-09-09T01:51:07;6.23;;;4.23;;
17199;SDS011;8716;52.268;20.968;2022-09-09T01:53:39;4.93;;;4.63;;
17199;SDS011;8716;52.268;20.968;2022-09-09T01:56:12;5.37;;;4.93;;
17199;SDS011;8716;52.268;20.968;2022-09-09T01:58:57;4.37;;;4.00;;
17199;SDS011;8716;52.268;20.968;2022-09-09T02:01:36;4.97;;;4.67;;
17199;SDS011;8716;52.268;20.968;2022-09-09T02:04:18;4.40;;;4.10;;
17199;SDS011;8716;52.268;20.968;2022-09-09T02:06:57;6.60;;;6.20;;
17199;SDS011;8716;52.268;20.968;2022-09-09T02:09:28;9.63;;;7.23;;
17199;SDS011;8716;52.268;20.968;2022-09-09T02:11:58;5.30;;;5.00;;
17199;SDS011;8716;52.268;20.968;2022-09-09T02:14:48;4.47;;;4.17;;
17199;SDS011;8716;52.268;20.968;2022-09-09T02:17:22;6.27;;;4.73;;
17199;SDS011;8716;52.268;20.968;2022-09-09T02:20:09;6.00;;;5.40;;
17199;SDS011;8716;52.268;20.968;2022-09-09T02:22:45;4.50;;;4.20;;
17199;SDS011;8716;52.268;20.968;2022-09-09T02:25:19;4.53;;;4.23;;
17199;SDS011;8716;52.268;20.968;2022-09-09T02:27:51;5.10;;;4.80;;
17199;SDS011;8716;52.268;20.968;2022-09-09T02:30:21;6.40;;;6.00;;
17199;SDS011;8716;52.268;20.968;2022-09-09T02:32:54;6.13;;;5.80;;
17199;SDS011;8716;52.268;20.968;2022-09-09T02:35:38;4.87;;;4.57;;
17199;SDS011;8716;52.268;20.968;2022-09-09T02:38:11;5.43;;;4.53;;
17199;SDS011;8716;52.268;20.968;2022-09-09T02:40:51;8.00;;;7.60;;
17199;SDS011;8716;52.268;20.968;2022-09-09T02:43:19;5.90;;;5.03;;
17199;SDS011;8716;52.268;20.968;2022-09-09T02:45:51;4.80;;;4.50;;
17199;SDS011;8716;52.268;20.968;2022-09-09T02:48:31;6.10;;;5.80;;
17199;SDS011;8716;52.268;20.968;2022-09-09T02:51:08;5.60;;;5.30;;
17199;SDS011;8716;52.268;20.968;2022-09-09T02:53:43;16.63;;;6.90;;
17199;SDS011;8716;52.268;20.968;2022-09-09T02:56:18;7.30;;;4.60;;
17199;SDS011;8716;52.268;20.968;2022-09-09T02:58:50;5.93;;;5.63;;
17199;SDS011;8716;52.268;20.968;2022-09-09T03:01:19;4.40;;;4.10;;
17199;SDS011;8716;52.268;20.968;2022-09-09T03:03:48;4.47;;;4.17;;
17199;SDS011;8716;52.268;20.968;2022-09-09T03:06:17;4.50;;;4.20;;
17199;SDS011;8716;52.268;20.968;2022-09-09T03:08:50;5.30;;;5.00;;
17199;SDS011;8716;52.268;20.968;2022-09-09T03:11:23;5.83;;;5.53;;
17199;SDS011;8716;52.268;20.968;2022-09-09T03:13:51;9.20;;;8.70;;
17199;SDS011;8716;52.268;20.968;2022-09-09T03:16:26;8.27;;;5.73;;
17199;SDS011;8716;52.268;20.968;2022-09-09T03:18:54;12.10;;;9.23;;
17199;SDS011;8716;52.268;20.968;2022-09-09T03:21:22;5.17;;;4.87;;
17199;SDS011;8716;52.268;20.968;2022-09-09T03:23:51;6.63;;;6.23;;
17199;SDS011;8716;52.268;20.968;2022-09-09T03:26:19;6.93;;;6.00;;
17199;SDS011;8716;52.268;20.968;2022-09-09T03:28:47;10.30;;;7.33;;
17199;SDS011;8716;52.268;20.968;2022-09-09T03:31:17;5.80;;;4.27;;
17199;SDS011;8716;52.268;20.968;2022-09-09T03:33:47;5.63;;;5.33;;
17199;SDS011;8716;52.268;20.968;2022-09-09T03:36:17;6.50;;;6.00;;
17199;SDS011;8716;52.268;20.968;2022-09-09T03:38:45;12.93;;;8.30;;
17199;SDS011;8716;52.268;20.968;2022-09-09T03:41:14;7.07;;;6.67;;
17199;SDS011;8716;52.268;20.968;2022-09-09T03:43:42;5.93;;;5.63;;
17199;SDS011;8716;52.268;20.968;2022-09-09T03:46:10;18.57;;;6.23;;
17199;SDS011;8716;52.268;20.968;2022-09-09T03:48:39;5.00;;;4.70;;
17199;SDS011;8716;52.268;20.968;2022-09-09T03:51:08;6.50;;;6.13;;
17199;SDS011;8716;52.268;20.968;2022-09-09T03:53:36;4.40;;;4.10;;
17199;SDS011;8716;52.268;20.968;2022-09-09T03:56:05;15.13;;;4.90;;
17199;SDS011;8716;52.268;20.968;2022-09-09T03:58:34;5.47;;;5.10;;
17199;SDS011;8716;52.268;20.968;2022-09-09T04:01:07;5.83;;;4.93;;
17199;SDS011;8716;52.268;20.968;2022-09-09T04:03:37;3.33;;;3.13;;
17199;SDS011;8716;52.268;20.968;2022-09-09T04:06:08;7.43;;;5.23;;
17199;SDS011;8716;52.268;20.968;2022-09-09T04:08:38;7.37;;;4.90;;
17199;SDS011;8716;52.268;20.968;2022-09-09T04:11:06;5.30;;;5.00;;
17199;SDS011;8716;52.268;20.968;2022-09-09T04:13:37;3.93;;;3.60;;
17199;SDS011;8716;52.268;20.968;2022-09-09T04:16:08;7.33;;;5.33;;
17199;SDS011;8716;52.268;20.968;2022-09-09T04:18:40;5.17;;;4.87;;
17199;SDS011;8716;52.268;20.968;2022-09-09T04:21:10;4.07;;;3.80;;
17199;SDS011;8716;52.268;20.968;2022-09-09T04:23:39;5.47;;;4.70;;
17199;SDS011;8716;52.268;20.968;2022-09-09T04:26:08;6.53;;;3.67;;
17199;SDS011;8716;52.268;20.968;2022-09-09T04:28:37;4.03;;;2.97;;
17199;SDS011;8716;52.268;20.968;2022-09-09T04:31:13;5.03;;;4.73;;
17199;SDS011;8716;52.268;20.968;2022-09-09T04:33:46;4.33;;;4.03;;
17199;SDS011;8716;52.268;20.968;2022-09-09T04:36:16;3.50;;;2.90;;
17199;SDS011;8716;52.268;20.968;2022-09-09T04:38:49;5.03;;;4.73;;
17199;SDS011;8716;52.268;20.968;2022-09-09T04:41:18;4.00;;;3.80;;
17199;SDS011;8716;52.268;20.968;2022-09-09T04:43:50;3.40;;;3.20;;
17199;SDS011;8716;52.268;20.968;2022-09-09T04:46:20;4.33;;;4.03;;
17199;SDS011;8716;52.268;20.968;2022-09-09T04:48:49;5.00;;;3.10;;
17199;SDS011;8716;52.268;20.968;2022-09-09T04:51:20;5.00;;;4.70;;
17199;SDS011;8716;52.268;20.968;2022-09-09T04:53:50;5.00;;;4.70;;
17199;SDS011;8716;52.268;20.968;2022-09-09T04:56:20;3.13;;;2.93;;
17199;SDS011;8716;52.268;20.968;2022-09-09T04:58:54;5.20;;;4.90;;
17199;SDS011;8716;52.268;20.968;2022-09-09T05:01:31;5.97;;;5.67;;
17199;SDS011;8716;52.268;20.968;2022-09-09T05:04:02;4.47;;;4.17;;
17199;SDS011;8716;52.268;20.968;2022-09-09T05:06:33;5.83;;;4.73;;
17199;SDS011;8716;52.268;20.968;2022-09-09T05:09:05;2.90;;;2.70;;
17199;SDS011;8716;52.268;20.968;2022-09-09T05:11:33;4.23;;;3.97;;
17199;SDS011;8716;52.268;20.968;2022-09-09T05:14:23;3.17;;;2.97;;
17199;SDS011;8716;52.268;20.968;2022-09-09T05:16:53;3.30;;;2.83;;
17199;SDS011;8716;52.268;20.968;2022-09-09T05:19:23;3.50;;;3.33;;
17199;SDS011;8716;52.268;20.968;2022-09-09T05:21:53;2.90;;;2.70;;
17199;SDS011;8716;52.268;20.968;2022-09-09T05:24:31;3.27;;;2.97;;
17199;SDS011;8716;52.268;20.968;2022-09-09T05:27:01;3.53;;;3.10;;
17199;SDS011;8716;52.268;20.968;2022-09-09T05:29:32;3.07;;;2.90;;
17199;SDS011;8716;52.268;20.968;2022-09-09T05:32:02;3.60;;;3.20;;
17199;SDS011;8716;52.268;20.968;2022-09-09T05:34:31;3.60;;;3.40;;
17199;SDS011;8716;52.268;20.968;2022-09-09T05:37:01;3.87;;;3.70;;
17199;SDS011;8716;52.268;20.968;2022-09-09T05:39:31;3.53;;;3.37;;
17199;SDS011;8716;52.268;20.968;2022-09-09T05:42:00;5.63;;;5.33;;
17199;SDS011;8716;52.268;20.968;2022-09-09T05:44:30;8.10;;;3.83;;
17199;SDS011;8716;52.268;20.968;2022-09-09T05:46:59;4.70;;;3.33;;
17199;SDS011;8716;52.268;20.968;2022-09-09T05:49:27;3.70;;;3.50;;
17199;SDS011;8716;52.268;20.968;2022-09-09T05:51:58;2.90;;;2.70;;
17199;SDS011;8716;52.268;20.968;2022-09-09T05:54:27;7.87;;;3.70;;
17199;SDS011;8716;52.268;20.968;2022-09-09T05:56:55;4.20;;;3.57;;
17199;SDS011;8716;52.268;20.968;2022-09-09T05:59:27;2.87;;;2.67;;
17199;SDS011;8716;52.268;20.968;2022-09-09T06:01:56;3.00;;;2.80;;
17199;SDS011;8716;52.268;20.968;2022-09-09T06:04:30;5.30;;;3.40;;
17199;SDS011;8716;52.268;20.968;2022-09-09T06:06:59;3.70;;;3.20;;
17199;SDS011;8716;52.268;20.968;2022-09-09T06:09:30;3.60;;;3.40;;
17199;SDS011;8716;52.268;20.968;2022-09-09T06:11:58;5.53;;;4.30;;
17199;SDS011;8716;52.268;20.968;2022-09-09T06:14:26;2.80;;;2.60;;
17199;SDS011;8716;52.268;20.968;2022-09-09T06:16:58;4.73;;;4.43;;
17199;SDS011;8716;52.268;20.968;2022-09-09T06:19:28;2.87;;;2.67;;
17199;SDS011;8716;52.268;20.968;2022-09-09T06:21:58;3.67;;;3.10;;
17199;SDS011;8716;52.268;20.968;2022-09-09T06:24:30;3.77;;;2.57;;
17199;SDS011;8716;52.268;20.968;2022-09-09T06:27:02;4.63;;;3.53;;
17199;SDS011;8716;52.268;20.968;2022-09-09T06:29:34;3.57;;;3.37;;
17199;SDS011;8716;52.268;20.968;2022-09-09T06:32:02;4.17;;;3.93;;
17199;SDS011;8716;52.268;20.968;2022-09-09T06:34:30;4.57;;;4.27;;
17199;SDS011;8716;52.268;20.968;2022-09-09T06:36:59;3.10;;;2.67;;
17199;SDS011;8716;52.268;20.968;2022-09-09T06:39:40;3.30;;;3.10;;
17199;SDS011;8716;52.268;20.968;2022-09-09T06:42:08;3.90;;;3.70;;
17199;SDS011;8716;52.268;20.968;2022-09-09T06:44:48;3.23;;;3.03;;
17199;SDS011;8716;52.268;20.968;2022-09-09T06:47:23;3.73;;;3.53;;
17199;SDS011;8716;52.268;20.968;2022-09-09T06:49:52;3.17;;;2.97;;
17199;SDS011;8716;52.268;20.968;2022-09-09T06:52:20;7.43;;;4.40;;
17199;SDS011;8716;52.268;20.968;2022-09-09T06:54:50;2.93;;;2.73;;
17199;SDS011;8716;52.268;20.968;2022-09-09T06:57:20;3.23;;;3.03;;
17199;SDS011;8716;52.268;20.968;2022-09-09T07:00:10;3.57;;;3.37;;
17199;SDS011;8716;52.268;20.968;2022-09-09T07:02:42;3.47;;;3.27;;
17199;SDS011;8716;52.268;20.968;2022-09-09T07:05:12;3.30;;;3.10;;
17199;SDS011;8716;52.268;20.968;2022-09-09T07:07:43;4.00;;;3.80;;
17199;SDS011;8716;52.268;20.968;2022-09-09T07:10:15;2.77;;;2.57;;
17199;SDS011;8716;52.268;20.968;2022-09-09T07:12:44;2.60;;;2.40;;
17199;SDS011;8716;52.268;20.968;2022-09-09T07:15:21;5.70;;;3.70;;
17199;SDS011;8716;52.268;20.968;2022-09-09T07:17:50;5.47;;;3.77;;
17199;SDS011;8716;52.268;20.968;2022-09-09T07:20:20;5.17;;;2.67;;
17199;SDS011;8716;52.268;20.968;2022-09-09T07:22:49;4.00;;;3.80;;
17199;SDS011;8716;52.268;20.968;2022-09-09T07:25:18;3.47;;;3.27;;
17199;SDS011;8716;52.268;20.968;2022-09-09T07:27:47;6.80;;;6.40;;
17199;SDS011;8716;52.268;20.968;2022-09-09T07:30:15;3.73;;;3.53;;
17199;SDS011;8716;52.268;20.968;2022-09-09T07:32:53;5.60;;;5.30;;
17199;SDS011;8716;52.268;20.968;2022-09-09T07:35:24;3.60;;;3.40;;
17199;SDS011;8716;52.268;20.968;2022-09-09T07:37:53;8.10;;;4.50;;
17199;SDS011;8716;52.268;20.968;2022-09-09T07:40:26;3.60;;;3.40;;
17199;SDS011;8716;52.268;20.968;2022-09-09T07:42:54;3.00;;;2.80;;
17199;SDS011;8716;52.268;20.968;2022-09-09T07:45:22;5.47;;;5.17;;
17199;SDS011;8716;52.268;20.968;2022-09-09T07:47:50;3.60;;;3.40;;
17199;SDS011;8716;52.268;20.968;2022-09-09T07:50:19;3.40;;;3.20;;
17199;SDS011;8716;52.268;20.968;2022-09-09T07:52:48;3.83;;;3.30;;
17199;SDS011;8716;52.268;20.968;2022-09-09T07:55:16;5.30;;;3.80;;
17199;SDS011;8716;52.268;20.968;2022-09-09T07:57:47;3.50;;;3.27;;
17199;SDS011;8716;52.268;20.968;2022-09-09T08:00:15;3.90;;;3.70;;
17199;SDS011;8716;52.268;20.968;2022-09-09T08:02:50;2.87;;;2.67;;
17199;SDS011;8716;52.268;20.968;2022-09-09T08:05:21;4.13;;;3.90;;
17199;SDS011;8716;52.268;20.968;2022-09-09T08:07:51;4.70;;;4.40;;
17199;SDS011;8716;52.268;20.968;2022-09-09T08:10:20;3.57;;;3.37;;
17199;SDS011;8716;52.268;20.968;2022-09-09T08:12:51;4.37;;;4.07;;
17199;SDS011;8716;52.268;20.968;2022-09-09T08:15:39;4.97;;;4.67;;
17199;SDS011;8716;52.268;20.968;2022-09-09T08:18:10;9.60;;;6.60;;
17199;SDS011;8716;52.268;20.968;2022-09-09T08:20:38;7.50;;;4.77;;
17199;SDS011;8716;52.268;20.968;2022-09-09T08:23:06;5.00;;;4.40;;
17199;SDS011;8716;52.268;20.968;2022-09-09T08:25:34;4.03;;;3.83;;
17199;SDS011;8716;52.268;20.968;2022-09-09T08:28:04;5.70;;;5.20;;
17199;SDS011;8716;52.268;20.968;2022-09-09T08:30:33;3.87;;;3.67;;
17199;SDS011;8716;52.268;20.968;2022-09-09T08:33:01;3.63;;;3.43;;
17199;SDS011;8716;52.268;20.968;2022-09-09T08:35:29;3.50;;;3.30;;
17199;SDS011;8716;52.268;20.968;2022-09-09T08:38:00;5.17;;;4.90;;
17199;SDS011;8716;52.268;20.968;2022-09-09T08:40:36;3.80;;;3.57;;
17199;SDS011;8716;52.268;20.968;2022-09-09T08:43:17;5.80;;;5.50;;
17199;SDS011;8716;52.268;20.968;2022-09-09T08:45:50;13.63;;;4.97;;
17199;SDS011;8716;52.268;20.968;2022-09-09T08:48:33;6.00;;;3.93;;
17199;SDS011;8716;52.268;20.968;2022-09-09T08:51:14;5.40;;;5.03;;
17199;SDS011;8716;52.268;20.968;2022-09-09T08:53:46;5.10;;;4.80;;
17199;SDS011;8716;52.268;20.968;2022-09-09T08:56:23;4.87;;;4.57;;
17199;SDS011;8716;52.268;20.968;2022-09-09T08:58:59;4.83;;;4.53;;
17199;SDS011;8716;52.268;20.968;2022-09-09T09:01:45;3.13;;;2.93;;
17199;SDS011;8716;52.268;20.968;2022-09-09T09:04:40;6.10;;;3.53;;
17199;SDS011;8716;52.268;20.968;2022-09-09T09:07:26;3.50;;;3.30;;
17199;SDS011;8716;52.268;20.968;2022-09-09T09:10:07;4.73;;;4.43;;
17199;SDS011;8716;52.268;20.968;2022-09-09T09:13:01;8.17;;;7.40;;
17199;SDS011;8716;52.268;20.968;2022-09-09T09:15:33;4.73;;;4.43;;
17199;SDS011;8716;52.268;20.968;2022-09-09T09:18:07;3.70;;;3.50;;
17199;SDS011;8716;52.268;20.968;2022-09-09T09:20:42;4.97;;;4.67;;
17199;SDS011;8716;52.268;20.968;2022-09-09T09:23:20;6.00;;;5.70;;
17199;SDS011;8716;52.268;20.968;2022-09-09T09:25:55;9.10;;;6.33;;
17199;SDS011;8716;52.268;20.968;2022-09-09T09:28:29;8.97;;;6.40;;
17199;SDS011;8716;52.268;20.968;2022-09-09T09:31:09;3.73;;;3.60;;
17199;SDS011;8716;52.268;20.968;2022-09-09T09:33:43;3.70;;;3.50;;
17199;SDS011;8716;52.268;20.968;2022-09-09T09:36:17;5.27;;;4.97;;
17199;SDS011;8716;52.268;20.968;2022-09-09T09:38:52;5.97;;;5.63;;
17199;SDS011;8716;52.268;20.968;2022-09-09T09:41:43;4.60;;;4.30;;
17199;SDS011;8716;52.268;20.968;2022-09-09T09:44:22;5.97;;;5.67;;
17199;SDS011;8716;52.268;20.968;2022-09-09T09:47:04;7.10;;;6.70;;
17199;SDS011;8716;52.268;20.968;2022-09-09T09:49:34;6.47;;;6.10;;
17199;SDS011;8716;52.268;20.968;2022-09-09T09:52:02;6.67;;;5.00;;
17199;SDS011;8716;52.268;20.968;2022-09-09T09:54:33;6.37;;;5.83;;
17199;SDS011;8716;52.268;20.968;2022-09-09T09:57:08;9.00;;;8.50;;
17199;SDS011;8716;52.268;20.968;2022-09-09T09:59:41;5.63;;;5.33;;
17199;SDS011;8716;52.268;20.968;2022-09-09T10:02:20;7.17;;;6.77;;
17199;SDS011;8716;52.268;20.968;2022-09-09T10:05:00;7.40;;;5.50;;
17199;SDS011;8716;52.268;20.968;2022-09-09T10:07:31;4.83;;;4.53;;
17199;SDS011;8716;52.268;20.968;2022-09-09T10:10:00;5.90;;;4.40;;
17199;SDS011;8716;52.268;20.968;2022-09-09T10:12:31;8.87;;;8.40;;
17199;SDS011;8716;52.268;20.968;2022-09-09T10:15:22;8.17;;;7.73;;
17199;SDS011;8716;52.268;20.968;2022-09-09T10:18:02;4.47;;;4.17;;
17199;SDS011;8716;52.268;20.968;2022-09-09T10:20:44;3.90;;;3.70;;
17199;SDS011;8716;52.268;20.968;2022-09-09T10:23:28;5.27;;;4.97;;
17199;SDS011;8716;52.268;20.968;2022-09-09T10:26:13;4.90;;;4.60;;
17199;SDS011;8716;52.268;20.968;2022-09-09T10:28:58;5.00;;;4.70;;
17199;SDS011;8716;52.268;20.968;2022-09-09T10:31:39;4.90;;;4.60;;
17199;SDS011;8716;52.268;20.968;2022-09-09T10:34:24;5.47;;;5.17;;
17199;SDS011;8716;52.268;20.968;2022-09-09T10:37:11;7.53;;;7.13;;
17199;SDS011;8716;52.268;20.968;2022-09-09T10:39:49;9.30;;;6.13;;
17199;SDS011;8716;52.268;20.968;2022-09-09T10:42:26;6.00;;;5.70;;
17199;SDS011;8716;52.268;20.968;2022-09-09T10:45:02;5.20;;;4.90;;
17199;SDS011;8716;52.268;20.968;2022-09-09T10:47:55;4.77;;;4.40;;
17199;SDS011;8716;52.268;20.968;2022-09-09T10:53:34;4.60;;;4.30;;
17199;SDS011;8716;52.268;20.968;2022-09-09T10:56:08;5.10;;;4.80;;
17199;SDS011;8716;52.268;20.968;2022-09-09T10:58:40;7.30;;;5.27;;
17199;SDS011;8716;52.268;20.968;2022-09-09T11:01:16;6.50;;;4.97;;
17199;SDS011;8716;52.268;20.968;2022-09-09T11:03:49;9.60;;;9.10;;
17199;SDS011;8716;52.268;20.968;2022-09-09T11:06:25;10.33;;;8.90;;
17199;SDS011;8716;52.268;20.968;2022-09-09T11:08:57;6.70;;;6.30;;
17199;SDS011;8716;52.268;20.968;2022-09-09T11:11:29;5.67;;;5.30;;
17199;SDS011;8716;52.268;20.968;2022-09-09T11:14:02;7.97;;;7.57;;
17199;SDS011;8716;52.268;20.968;2022-09-09T11:16:39;7.90;;;7.50;;
17199;SDS011;8716;52.268;20.968;2022-09-09T11:19:11;4.77;;;4.27;;
17199;SDS011;8716;52.268;20.968;2022-09-09T11:21:46;7.40;;;7.00;;
17199;SDS011;8716;52.268;20.968;2022-09-09T11:24:17;11.47;;;7.33;;
17199;SDS011;8716;52.268;20.968;2022-09-09T11:26:50;6.93;;;6.53;;
17199;SDS011;8716;52.268;20.968;2022-09-09T11:29:27;6.83;;;6.40;;
17199;SDS011;8716;52.268;20.968;2022-09-09T11:32:26;6.27;;;5.93;;
17199;SDS011;8716;52.268;20.968;2022-09-09T11:35:11;5.97;;;5.67;;
17199;SDS011;8716;52.268;20.968;2022-09-09T11:37:59;7.60;;;7.20;;
17199;SDS011;8716;52.268;20.968;2022-09-09T11:40:39;6.60;;;6.20;;
17199;SDS011;8716;52.268;20.968;2022-09-09T11:43:09;10.87;;;8.07;;
17199;SDS011;8716;52.268;20.968;2022-09-09T11:45:39;6.80;;;6.40;;
17199;SDS011;8716;52.268;20.968;2022-09-09T11:48:22;12.97;;;7.63;;
17199;SDS011;8716;52.268;20.968;2022-09-09T11:50:59;4.77;;;4.47;;
17199;SDS011;8716;52.268;20.968;2022-09-09T11:53:33;7.80;;;7.40;;
17199;SDS011;8716;52.268;20.968;2022-09-09T11:56:05;15.53;;;7.37;;
17199;SDS011;8716;52.268;20.968;2022-09-09T11:58:43;5.43;;;5.13;;
17199;SDS011;8716;52.268;20.968;2022-09-09T12:01:29;9.30;;;7.90;;
17199;SDS011;8716;52.268;20.968;2022-09-09T12:06:56;9.67;;;8.43;;
17199;SDS011;8716;52.268;20.968;2022-09-09T12:09:32;7.53;;;6.50;;
17199;SDS011;8716;52.268;20.968;2022-09-09T12:12:26;7.07;;;5.53;;
17199;SDS011;8716;52.268;20.968;2022-09-09T12:17:59;11.23;;;6.00;;
17199;SDS011;8716;52.268;20.968;2022-09-09T12:20:33;11.00;;;8.63;;
17199;SDS011;8716;52.268;20.968;2022-09-09T12:26:08;7.30;;;6.37;;
17199;SDS011;8716;52.268;20.968;2022-09-09T12:28:52;9.63;;;9.13;;
17199;SDS011;8716;52.268;20.968;2022-09-09T12:31:34;13.43;;;10.63;;
17199;SDS011;8716;52.268;20.968;2022-09-09T12:34:12;9.40;;;8.90;;
17199;SDS011;8716;52.268;20.968;2022-09-09T12:36:44;7.33;;;6.93;;
17199;SDS011;8716;52.268;20.968;2022-09-09T12:39:21;8.80;;;8.30;;
17199;SDS011;8716;52.268;20.968;2022-09-09T12:41:56;9.00;;;8.50;;
17199;SDS011;8716;52.268;20.968;2022-09-09T12:44:25;8.97;;;8.50;;
17199;SDS011;8716;52.268;20.968;2022-09-09T12:46:55;10.60;;;8.57;;
17199;SDS011;8716;52.268;20.968;2022-09-09T12:49:32;8.80;;;8.30;;
17199;SDS011;8716;52.268;20.968;2022-09-09T12:52:06;9.30;;;8.20;;
17199;SDS011;8716;52.268;20.968;2022-09-09T12:54:36;6.23;;;5.90;;
17199;SDS011;8716;52.268;20.968;2022-09-09T12:57:09;9.70;;;9.00;;
17199;SDS011;8716;52.268;20.968;2022-09-09T12:59:40;8.80;;;8.30;;
17199;SDS011;8716;52.268;20.968;2022-09-09T13:02:16;13.33;;;9.90;;
17199;SDS011;8716;52.268;20.968;2022-09-09T13:04:46;9.93;;;6.03;;
17199;SDS011;8716;52.268;20.968;2022-09-09T13:07:16;5.50;;;5.20;;
17199;SDS011;8716;52.268;20.968;2022-09-09T13:09:45;9.67;;;9.17;;
17199;SDS011;8716;52.268;20.968;2022-09-09T13:12:18;8.33;;;7.90;;
17199;SDS011;8716;52.268;20.968;2022-09-09T13:14:49;14.80;;;13.40;;
17199;SDS011;8716;52.268;20.968;2022-09-09T13:17:21;23.90;;;15.73;;
17199;SDS011;8716;52.268;20.968;2022-09-09T13:19:50;17.77;;;10.73;;
17199;SDS011;8716;52.268;20.968;2022-09-09T13:22:20;10.90;;;10.30;;
17199;SDS011;8716;52.268;20.968;2022-09-09T13:25:04;9.30;;;8.80;;
17199;SDS011;8716;52.268;20.968;2022-09-09T13:27:55;7.70;;;7.30;;
17199;SDS011;8716;52.268;20.968;2022-09-09T13:30:29;8.33;;;7.20;;
17199;SDS011;8716;52.268;20.968;2022-09-09T13:33:00;12.50;;;11.77;;
17199;SDS011;8716;52.268;20.968;2022-09-09T13:35:47;14.00;;;8.90;;
17199;SDS011;8716;52.268;20.968;2022-09-09T13:38:17;7.70;;;6.93;;
17199;SDS011;8716;52.268;20.968;2022-09-09T13:40:52;10.77;;;10.17;;
17199;SDS011;8716;52.268;20.968;2022-09-09T13:43:25;10.97;;;8.90;;
17199;SDS011;8716;52.268;20.968;2022-09-09T13:45:55;5.60;;;5.20;;
17199;SDS011;8716;52.268;20.968;2022-09-09T13:48:25;9.23;;;8.73;;
17199;SDS011;8716;52.268;20.968;2022-09-09T13:50:54;8.27;;;7.87;;
17199;SDS011;8716;52.268;20.968;2022-09-09T13:53:26;8.93;;;8.47;;
17199;SDS011;8716;52.268;20.968;2022-09-09T13:55:55;6.90;;;6.50;;
17199;SDS011;8716;52.268;20.968;2022-09-09T13:58:25;7.00;;;6.60;;
17199;SDS011;8716;52.268;20.968;2022-09-09T14:00:53;12.10;;;11.50;;
17199;SDS011;8716;52.268;20.968;2022-09-09T14:03:23;5.17;;;4.93;;
17199;SDS011;8716;52.268;20.968;2022-09-09T14:05:51;12.70;;;10.67;;
17199;SDS011;8716;52.268;20.968;2022-09-09T14:08:24;18.93;;;9.33;;
17199;SDS011;8716;52.268;20.968;2022-09-09T14:10:54;8.70;;;6.93;;
17199;SDS011;8716;52.268;20.968;2022-09-09T14:13:26;12.93;;;9.63;;
17199;SDS011;8716;52.268;20.968;2022-09-09T14:15:54;7.27;;;6.67;;
17199;SDS011;8716;52.268;20.968;2022-09-09T14:18:22;8.33;;;7.90;;
17199;SDS011;8716;52.268;20.968;2022-09-09T14:20:53;11.53;;;8.80;;
17199;SDS011;8716;52.268;20.968;2022-09-09T14:23:25;10.67;;;8.20;;
17199;SDS011;8716;52.268;20.968;2022-09-09T14:25:53;11.07;;;9.50;;
17199;SDS011;8716;52.268;20.968;2022-09-09T14:28:21;8.77;;;8.30;;
17199;SDS011;8716;52.268;20.968;2022-09-09T14:31:11;8.03;;;7.63;;
17199;SDS011;8716;52.268;20.968;2022-09-09T14:33:39;21.17;;;10.23;;
17199;SDS011;8716;52.268;20.968;2022-09-09T14:36:08;11.90;;;8.60;;
17199;SDS011;8716;52.268;20.968;2022-09-09T14:38:37;13.93;;;8.23;;
17199;SDS011;8716;52.268;20.968;2022-09-09T14:41:06;19.87;;;16.10;;
17199;SDS011;8716;52.268;20.968;2022-09-09T14:43:37;15.83;;;15.03;;
17199;SDS011;8716;52.268;20.968;2022-09-09T14:46:05;11.07;;;10.47;;
17199;SDS011;8716;52.268;20.968;2022-09-09T14:48:35;9.57;;;7.57;;
17199;SDS011;8716;52.268;20.968;2022-09-09T14:51:07;5.93;;;5.63;;
17199;SDS011;8716;52.268;20.968;2022-09-09T14:53:36;5.10;;;4.80;;
17199;SDS011;8716;52.268;20.968;2022-09-09T14:56:05;7.63;;;7.23;;
17199;SDS011;8716;52.268;20.968;2022-09-09T14:58:34;14.93;;;12.23;;
17199;SDS011;8716;52.268;20.968;2022-09-09T15:01:03;8.20;;;7.73;;
17199;SDS011;8716;52.268;20.968;2022-09-09T15:03:32;10.60;;;9.70;;
17199;SDS011;8716;52.268;20.968;2022-09-09T15:06:08;7.83;;;7.43;;
17199;SDS011;8716;52.268;20.968;2022-09-09T15:08:40;11.77;;;7.10;;
17199;SDS011;8716;52.268;20.968;2022-09-09T15:11:10;7.60;;;7.20;;
17199;SDS011;8716;52.268;20.968;2022-09-09T15:13:42;6.43;;;5.00;;
17199;SDS011;8716;52.268;20.968;2022-09-09T15:16:11;6.73;;;5.93;;
17199;SDS011;8716;52.268;20.968;2022-09-09T15:18:40;11.83;;;11.23;;
17199;SDS011;8716;52.268;20.968;2022-09-09T15:21:12;7.27;;;6.87;;
17199;SDS011;8716;52.268;20.968;2022-09-09T15:23:42;9.87;;;7.90;;
17199;SDS011;8716;52.268;20.968;2022-09-09T15:26:10;8.07;;;7.60;;
17199;SDS011;8716;52.268;20.968;2022-09-09T15:28:40;7.27;;;6.87;;
17199;SDS011;8716;52.268;20.968;2022-09-09T15:31:11;6.07;;;4.80;;
17199;SDS011;8716;52.268;20.968;2022-09-09T15:33:41;18.83;;;14.40;;
17199;SDS011;8716;52.268;20.968;2022-09-09T15:36:17;6.80;;;6.40;;